Time;durP1;ratioP1;P1;durP2;ratioP2;P2;SDS_P1;SDS_P2;PMS_P1;PMS_P2;Temp;Humidity;BMP_temperature;BMP_pressure;BME280_temperature;BME280_humidity;BME280_pressure;Samples;Min_cycle;Max_cycle;Signal;HPM_P1;HPM_P2
2023/07/21 00:00:31;;;;;;;2.87;2.67;;;20.10;99.90;;;;;;5021317;28;20645;-52
2023/07/21 00:02:57;;;;;;;3.80;3.50;;;20.00;99.90;;;;;;5028527;28;20234;-53
2023/07/21 00:05:25;;;;;;;4.90;4.17;;;20.00;99.90;;;;;;5030414;28;20253;-52
2023/07/21 00:07:52;;;;;;;3.03;2.83;;;19.90;99.90;;;;;;5030541;28;20222;-52
2023/07/21 00:10:20;;;;;;;3.00;2.80;;;19.90;99.90;;;;;;5029792;28;20198;-52
2023/07/21 00:12:49;;;;;;;3.20;3.00;;;20.00;99.90;;;;;;5021300;28;20695;-52
2023/07/21 00:15:18;;;;;;;3.60;3.27;;;20.00;99.90;;;;;;5027368;28;20692;-53
2023/07/21 00:17:46;;;;;;;2.90;2.70;;;19.90;99.90;;;;;;5029874;28;20215;-53
2023/07/21 00:20:19;;;;;;;2.57;2.37;;;19.80;99.90;;;;;;5030146;28;20548;-52
2023/07/21 00:22:46;;;;;;;3.30;2.73;;;19.90;99.90;;;;;;5028954;28;20210;-53
2023/07/21 00:25:13;;;;;;;2.77;2.50;;;19.90;99.90;;;;;;5021853;28;20195;-53
2023/07/21 00:27:45;;;;;;;4.70;2.93;;;19.80;99.90;;;;;;5029451;28;20239;-52
2023/07/21 00:30:13;;;;;;;2.73;2.33;;;19.80;99.90;;;;;;5021431;28;20198;-52
2023/07/21 00:32:43;;;;;;;5.00;2.93;;;19.70;99.90;;;;;;5029774;28;20252;-52
2023/07/21 00:35:10;;;;;;;3.03;2.83;;;19.70;99.90;;;;;;5028940;28;20203;-52
2023/07/21 00:37:38;;;;;;;3.93;2.97;;;19.70;99.90;;;;;;5021702;28;20751;-52
2023/07/21 00:40:09;;;;;;;2.53;2.27;;;19.70;99.90;;;;;;5030020;28;20300;-52
2023/07/21 00:42:36;;;;;;;4.17;3.23;;;19.60;99.90;;;;;;5029970;28;20202;-52
2023/07/21 00:45:06;;;;;;;3.30;3.07;;;19.60;99.90;;;;;;5021430;28;20264;-52
2023/07/21 00:47:36;;;;;;;4.23;3.83;;;19.60;99.90;;;;;;5028811;28;20266;-52
2023/07/21 00:50:03;;;;;;;5.07;3.73;;;19.60;99.90;;;;;;5021699;28;20201;-52
2023/07/21 00:52:30;;;;;;;3.40;3.20;;;19.60;99.90;;;;;;5029833;28;20280;-52
2023/07/21 00:54:58;;;;;;;3.43;3.27;;;19.60;99.90;;;;;;5030353;28;20202;-52
2023/07/21 00:57:25;;;;;;;3.10;3.00;;;19.60;99.90;;;;;;5028525;28;20276;-52
2023/07/21 00:59:52;;;;;;;4.80;3.40;;;19.70;99.90;;;;;;5028562;28;20258;-52
2023/07/21 01:02:21;;;;;;;3.57;3.27;;;19.70;99.90;;;;;;5026816;28;20206;-52
2023/07/21 01:04:48;;;;;;;3.63;3.33;;;19.70;99.90;;;;;;5029672;28;20759;-53
2023/07/21 01:07:15;;;;;;;3.30;3.10;;;19.70;99.90;;;;;;5029871;28;20277;-52
2023/07/21 01:09:45;;;;;;;3.17;2.80;;;19.70;99.90;;;;;;5030165;28;20205;-52
2023/07/21 01:12:13;;;;;;;3.47;3.13;;;19.80;99.90;;;;;;5028260;28;20199;-52
2023/07/21 01:14:40;;;;;;;2.90;2.80;;;19.80;99.90;;;;;;5028034;28;20237;-52
2023/07/21 01:17:09;;;;;;;2.97;2.77;;;19.80;99.90;;;;;;5029780;28;20226;-52
2023/07/21 01:19:39;;;;;;;3.47;3.20;;;19.70;99.90;;;;;;5029515;28;20221;-52
2023/07/21 01:22:10;;;;;;;2.80;2.57;;;19.70;99.90;;;;;;5025862;28;20230;-52
2023/07/21 01:24:43;;;;;;;4.13;3.63;;;19.70;99.90;;;;;;5021373;28;20278;-52
2023/07/21 01:27:13;;;;;;;3.13;2.83;;;19.70;99.90;;;;;;5022857;28;20279;-52
2023/07/21 01:29:43;;;;;;;3.03;2.73;;;19.70;99.90;;;;;;5029584;28;20194;-52
2023/07/21 01:32:12;;;;;;;3.37;3.07;;;19.60;99.90;;;;;;5029788;28;20298;-52
2023/07/21 01:34:39;;;;;;;4.00;3.70;;;19.70;99.90;;;;;;5020448;28;20195;-52
2023/07/21 01:37:08;;;;;;;3.93;3.10;;;19.60;99.90;;;;;;5024425;28;20277;-53
2023/07/21 01:39:36;;;;;;;2.93;2.73;;;19.50;99.90;;;;;;5025184;28;20222;-53
2023/07/21 01:42:04;;;;;;;2.97;2.67;;;19.50;99.90;;;;;;5020744;28;20644;-52
2023/07/21 01:44:32;;;;;;;3.47;3.27;;;19.40;99.90;;;;;;5029597;28;20652;-53
2023/07/21 01:46:59;;;;;;;3.43;3.23;;;19.40;99.90;;;;;;5030027;28;20304;-52
2023/07/21 01:49:26;;;;;;;3.10;2.90;;;19.40;99.90;;;;;;5022913;28;20724;-52
2023/07/21 01:51:57;;;;;;;4.07;3.73;;;19.30;99.90;;;;;;5027789;28;20237;-52
2023/07/21 01:54:27;;;;;;;5.73;3.30;;;19.20;99.90;;;;;;5028982;28;20252;-52
2023/07/21 01:57:00;;;;;;;4.30;3.33;;;19.20;99.90;;;;;;5021075;28;20264;-52
2023/07/21 01:59:27;;;;;;;3.37;3.10;;;19.10;99.90;;;;;;5020473;28;20294;-52
2023/07/21 02:01:57;;;;;;;3.77;3.50;;;19.20;99.90;;;;;;5026952;28;20198;-52
2023/07/21 02:04:24;;;;;;;3.27;3.17;;;19.10;99.90;;;;;;5022143;28;20211;-52
2023/07/21 02:06:51;;;;;;;3.20;3.07;;;19.10;99.90;;;;;;5020925;28;20218;-52
2023/07/21 02:09:21;;;;;;;6.27;3.80;;;19.10;99.90;;;;;;5029170;28;20277;-52
2023/07/21 02:11:49;;;;;;;9.03;3.20;;;19.10;99.90;;;;;;5022619;28;20202;-52
2023/07/21 02:14:17;;;;;;;3.90;3.70;;;19.00;99.90;;;;;;5031359;28;20198;-52
2023/07/21 02:16:44;;;;;;;8.13;4.63;;;19.00;99.90;;;;;;5023587;28;20233;-52
2023/07/21 02:19:12;;;;;;;6.07;3.60;;;18.90;99.90;;;;;;5024218;28;20227;-52
2023/07/21 02:21:39;;;;;;;3.23;3.03;;;18.90;99.90;;;;;;5032989;28;20222;-52
2023/07/21 02:24:07;;;;;;;4.23;3.83;;;18.90;99.90;;;;;;5023751;28;20206;-52
2023/07/21 02:26:34;;;;;;;3.53;3.23;;;18.90;99.90;;;;;;5031728;28;20226;-52
2023/07/21 02:29:01;;;;;;;3.43;3.33;;;18.90;99.90;;;;;;5023891;28;20252;-52
2023/07/21 02:31:28;;;;;;;4.13;3.73;;;18.90;99.90;;;;;;5032753;28;20256;-52
2023/07/21 02:33:55;;;;;;;4.27;3.77;;;18.90;99.90;;;;;;5032322;28;20278;-52
2023/07/21 02:36:23;;;;;;;3.93;3.60;;;19.00;99.90;;;;;;5032554;28;20252;-52
2023/07/21 02:38:50;;;;;;;3.27;3.07;;;19.00;99.90;;;;;;5024063;28;20215;-53
2023/07/21 02:41:17;;;;;;;4.17;3.17;;;19.00;99.90;;;;;;5031998;28;20242;-52
2023/07/21 02:43:44;;;;;;;3.60;3.30;;;19.10;99.90;;;;;;5031898;28;20203;-52
2023/07/21 02:46:11;;;;;;;3.37;3.07;;;19.00;99.90;;;;;;5031041;28;20269;-53
2023/07/21 02:48:38;;;;;;;4.00;3.63;;;19.00;99.90;;;;;;5024239;28;20302;-52
2023/07/21 02:51:05;;;;;;;4.00;3.60;;;19.00;99.90;;;;;;5031482;28;20272;-52
2023/07/21 02:53:34;;;;;;;3.13;2.90;;;18.90;99.90;;;;;;5031327;28;20202;-52
2023/07/21 02:56:03;;;;;;;3.70;3.37;;;18.80;99.90;;;;;;5031851;28;20199;-52
2023/07/21 02:58:30;;;;;;;4.20;3.90;;;18.70;99.90;;;;;;5071307;22;20237;-51
2023/07/21 03:00:58;;;;;;;4.07;3.40;;;18.70;99.90;;;;;;5052727;28;20221;-50
2023/07/21 03:03:26;;;;;;;3.90;3.70;;;18.60;99.90;;;;;;5053320;28;20809;-51
2023/07/21 03:05:53;;;;;;;3.77;3.57;;;18.70;99.90;;;;;;5044120;28;20203;-51
2023/07/21 03:08:28;;;;;;;4.17;3.97;;;18.50;99.90;;;;;;5053400;28;20226;-51
2023/07/21 03:10:57;;;;;;;4.17;3.97;;;18.40;99.90;;;;;;5053651;28;20630;-51
2023/07/21 03:13:25;;;;;;;4.10;3.87;;;18.40;99.90;;;;;;5052065;28;20252;-51
2023/07/21 03:15:52;;;;;;;3.27;3.07;;;18.40;99.90;;;;;;5052851;28;20194;-51
2023/07/21 03:18:19;;;;;;;3.87;3.57;;;18.60;99.90;;;;;;5051233;28;20267;-51
2023/07/21 03:20:49;;;;;;;2.90;2.70;;;18.70;99.90;;;;;;5053170;28;20218;-51
2023/07/21 03:23:16;;;;;;;4.17;3.60;;;18.70;99.90;;;;;;5052216;28;20206;-50
2023/07/21 03:25:43;;;;;;;3.90;3.70;;;18.70;99.90;;;;;;5053164;28;20198;-51
2023/07/21 03:28:11;;;;;;;3.20;3.00;;;18.70;99.90;;;;;;5052960;28;20226;-50
2023/07/21 03:30:39;;;;;;;3.60;3.30;;;18.70;99.90;;;;;;5049720;28;20720;-51
2023/07/21 03:33:06;;;;;;;3.17;3.03;;;18.60;99.90;;;;;;5052910;28;20197;-51
2023/07/21 03:35:33;;;;;;;4.23;3.80;;;18.60;99.90;;;;;;5052925;28;20687;-51
2023/07/21 03:38:00;;;;;;;4.83;4.37;;;18.70;99.90;;;;;;5050628;28;20217;-50
2023/07/21 03:40:27;;;;;;;4.07;3.87;;;18.70;99.90;;;;;;5052749;28;20237;-51
2023/07/21 03:42:54;;;;;;;4.23;3.83;;;18.60;99.90;;;;;;5049933;28;20251;-51
2023/07/21 03:45:23;;;;;;;4.37;3.97;;;18.60;99.90;;;;;;5052779;28;20285;-51
2023/07/21 03:47:50;;;;;;;4.37;3.97;;;18.50;99.90;;;;;;5052885;28;20271;-50
2023/07/21 03:50:17;;;;;;;3.03;2.77;;;18.30;99.90;;;;;;5052380;28;20256;-50
2023/07/21 03:52:46;;;;;;;4.40;4.00;;;18.30;99.90;;;;;;5048881;28;20267;-51
2023/07/21 03:55:13;;;;;;;4.80;3.13;;;18.40;99.90;;;;;;5047777;28;20310;-51
2023/07/21 03:57:41;;;;;;;5.10;4.10;;;18.40;99.90;;;;;;5050568;28;20272;-51
2023/07/21 04:00:09;;;;;;;3.30;3.07;;;18.30;99.90;;;;;;5042879;28;20308;-50
2023/07/21 04:02:37;;;;;;;4.37;3.53;;;18.30;99.90;;;;;;5049409;28;20252;-50
2023/07/21 04:05:05;;;;;;;3.63;3.37;;;18.30;99.90;;;;;;5049635;28;20256;-51
2023/07/21 04:07:32;;;;;;;3.80;3.60;;;18.20;99.90;;;;;;5051384;28;20218;-51
2023/07/21 04:09:59;;;;;;;3.23;3.00;;;18.30;99.90;;;;;;5033835;28;20691;-51
2023/07/21 04:12:26;;;;;;;5.80;3.13;;;18.30;99.90;;;;;;5042806;28;20198;-51
2023/07/21 04:14:53;;;;;;;7.50;3.60;;;18.30;99.90;;;;;;5050799;28;20197;-51
2023/07/21 04:17:20;;;;;;;2.70;2.60;;;18.40;99.90;;;;;;5050859;28;20292;-51
2023/07/21 04:19:48;;;;;;;3.47;3.17;;;18.30;99.90;;;;;;5049893;28;20194;-51
2023/07/21 04:22:16;;;;;;;3.93;3.30;;;18.30;99.90;;;;;;5051663;28;20248;-49
2023/07/21 04:24:43;;;;;;;3.27;3.13;;;18.30;99.90;;;;;;5056799;28;20263;-51
2023/07/21 04:27:10;;;;;;;2.70;2.50;;;18.30;99.90;;;;;;5052098;28;20230;-49
2023/07/21 04:29:37;;;;;;;3.03;2.87;;;18.30;99.90;;;;;;5050292;28;20256;-51
2023/07/21 04:32:05;;;;;;;2.73;2.63;;;18.30;99.90;;;;;;5050923;28;20747;-51
2023/07/21 04:34:31;;;;;;;3.67;3.35;;;18.30;99.90;;;;;;5047694;28;20470;-51
2023/07/21 04:37:00;;;;;;;5.33;3.77;;;18.50;99.90;;;;;;5050888;28;20217;-51
2023/07/21 04:39:27;;;;;;;2.90;2.80;;;18.50;99.90;;;;;;5051814;28;20198;-52
2023/07/21 04:41:54;;;;;;;4.47;3.07;;;18.50;99.90;;;;;;5051453;28;20291;-51
2023/07/21 04:44:21;;;;;;;6.00;2.83;;;18.40;99.90;;;;;;5051491;28;20201;-51
2023/07/21 04:46:48;;;;;;;3.00;2.80;;;18.40;99.90;;;;;;5051545;28;20205;-51
2023/07/21 04:49:15;;;;;;;2.90;2.70;;;18.40;99.90;;;;;;5051540;28;20556;-51
2023/07/21 04:51:42;;;;;;;5.60;4.37;;;18.40;99.90;;;;;;5051091;28;20299;-52
2023/07/21 04:54:11;;;;;;;2.60;2.10;;;18.50;99.90;;;;;;5035457;28;20272;-51
2023/07/21 04:56:39;;;;;;;3.60;3.20;;;18.50;99.90;;;;;;5031546;28;20218;-51
2023/07/21 04:59:06;;;;;;;7.00;3.50;;;18.60;99.90;;;;;;5034886;28;20316;-51
2023/07/21 05:01:33;;;;;;;3.47;3.17;;;18.80;99.90;;;;;;5065555;28;20697;-50
2023/07/21 05:04:00;;;;;;;3.90;3.53;;;18.80;99.90;;;;;;5071322;28;20259;-52
2023/07/21 05:06:27;;;;;;;3.40;3.00;;;18.90;99.90;;;;;;5071607;28;20201;-51
2023/07/21 05:08:54;;;;;;;4.67;4.30;;;19.00;99.90;;;;;;5060849;28;20230;-51
2023/07/21 05:11:22;;;;;;;2.63;2.53;;;19.00;99.90;;;;;;5031603;28;20198;-51
2023/07/21 05:13:51;;;;;;;3.30;3.00;;;19.00;99.90;;;;;;5031220;28;20214;-52
2023/07/21 05:16:18;;;;;;;3.13;2.90;;;19.10;99.90;;;;;;5036571;28;20208;-51
2023/07/21 05:18:45;;;;;;;3.70;3.40;;;19.10;99.90;;;;;;5048958;28;20287;-51
2023/07/21 05:21:13;;;;;;;6.00;3.30;;;19.20;99.90;;;;;;5051005;28;20763;-51
2023/07/21 05:23:41;;;;;;;3.90;3.60;;;19.20;99.90;;;;;;5050605;28;20210;-51
2023/07/21 05:26:08;;;;;;;3.83;3.53;;;19.50;99.90;;;;;;5046162;28;20651;-51
2023/07/21 05:28:36;;;;;;;7.07;3.20;;;20.20;99.90;;;;;;5051062;28;20286;-51
2023/07/21 05:31:04;;;;;;;3.60;3.40;;;20.40;99.90;;;;;;5051212;28;20198;-52
2023/07/21 05:33:31;;;;;;;5.03;3.17;;;20.50;99.90;;;;;;5051305;28;20202;-52
2023/07/21 05:36:05;;;;;;;3.70;3.53;;;20.60;99.90;;;;;;5051418;28;20275;-51
2023/07/21 05:38:32;;;;;;;4.33;3.83;;;20.80;99.90;;;;;;5045355;28;20262;-51
2023/07/21 05:40:59;;;;;;;4.07;3.67;;;21.30;99.90;;;;;;5050964;28;20221;-52
2023/07/21 05:43:26;;;;;;;4.20;3.90;;;21.20;99.90;;;;;;5041118;28;20276;-52
2023/07/21 05:45:55;;;;;;;3.63;3.10;;;21.30;99.90;;;;;;5031681;28;20202;-51
2023/07/21 05:48:24;;;;;;;3.53;3.23;;;21.20;99.90;;;;;;5035155;28;20222;-51
2023/07/21 05:50:51;;;;;;;7.33;4.33;;;21.30;99.90;;;;;;5034983;28;20731;-51
2023/07/21 05:53:19;;;;;;;6.43;4.37;;;21.30;99.90;;;;;;5039557;28;20798;-51
2023/07/21 05:55:47;;;;;;;3.77;3.57;;;21.30;99.90;;;;;;5054655;28;20276;-52
2023/07/21 05:58:14;;;;;;;5.07;4.23;;;21.10;99.90;;;;;;5054628;28;20230;-51
2023/07/21 06:00:41;;;;;;;3.57;3.37;;;20.90;99.90;;;;;;5050257;28;20603;-51
2023/07/21 06:03:10;;;;;;;4.30;3.90;;;20.50;99.90;;;;;;5054635;28;20255;-51
2023/07/21 06:05:37;;;;;;;4.03;3.73;;;20.30;99.90;;;;;;5054523;28;20613;-51
2023/07/21 06:08:04;;;;;;;5.47;4.40;;;19.90;99.90;;;;;;5053461;28;20725;-51
2023/07/21 06:10:31;;;;;;;4.70;4.43;;;19.70;99.90;;;;;;5053637;28;20194;-52
2023/07/21 06:12:58;;;;;;;8.60;4.43;;;19.50;99.90;;;;;;5054567;28;20204;-51
2023/07/21 06:15:26;;;;;;;6.40;4.77;;;19.30;99.90;;;;;;5052866;28;20202;-51
2023/07/21 06:17:53;;;;;;;5.10;4.60;;;19.20;99.90;;;;;;5051858;28;20304;-51
2023/07/21 06:20:22;;;;;;;5.90;5.40;;;19.20;99.90;;;;;;5054225;28;20687;-51
2023/07/21 06:22:49;;;;;;;7.37;4.80;;;19.20;99.90;;;;;;5052636;28;20226;-51
2023/07/21 06:25:18;;;;;;;5.30;4.97;;;19.30;99.90;;;;;;5052073;28;20201;-50
2023/07/21 06:27:46;;;;;;;5.43;4.80;;;19.30;99.90;;;;;;5054211;28;20214;-50
2023/07/21 06:30:14;;;;;;;7.50;4.30;;;19.50;99.90;;;;;;5049405;28;20205;-51
2023/07/21 06:32:41;;;;;;;4.43;4.03;;;19.60;99.90;;;;;;5048503;28;20253;-51
2023/07/21 06:35:08;;;;;;;5.33;4.87;;;19.70;99.90;;;;;;5046967;28;20205;-51
2023/07/21 06:37:38;;;;;;;5.40;4.23;;;19.70;99.90;;;;;;5052575;28;20292;-51
2023/07/21 06:40:06;;;;;;;4.63;4.23;;;19.60;99.90;;;;;;5053860;28;20645;-51
2023/07/21 06:42:33;;;;;;;4.47;4.07;;;19.40;99.90;;;;;;5051525;28;20757;-51
2023/07/21 06:45:00;;;;;;;4.97;4.57;;;19.30;99.90;;;;;;5052318;28;20194;-51
2023/07/21 06:47:27;;;;;;;6.20;5.10;;;19.10;99.90;;;;;;5043406;28;20268;-51
2023/07/21 06:49:54;;;;;;;6.70;6.10;;;19.00;99.90;;;;;;5051676;28;20675;-51
2023/07/21 06:52:21;;;;;;;5.67;5.00;;;18.90;99.90;;;;;;5036512;28;20206;-51
2023/07/21 06:54:50;;;;;;;5.63;5.13;;;18.90;99.90;;;;;;5042382;28;20198;-50
2023/07/21 06:57:17;;;;;;;6.30;5.23;;;18.90;99.90;;;;;;5050776;28;20225;-51
2023/07/21 06:59:44;;;;;;;6.60;5.60;;;18.80;99.90;;;;;;5052514;28;20198;-50
2023/07/21 07:02:12;;;;;;;6.67;6.00;;;18.70;99.90;;;;;;5046566;28;20692;-52
2023/07/21 07:04:39;;;;;;;5.77;5.30;;;18.70;99.90;;;;;;5053044;28;20198;-51
2023/07/21 07:07:07;;;;;;;5.87;5.47;;;18.70;99.90;;;;;;5053104;28;20742;-51
2023/07/21 07:09:34;;;;;;;10.20;6.27;;;18.60;99.90;;;;;;5034854;28;20611;-52
2023/07/21 07:12:03;;;;;;;13.10;7.20;;;18.50;99.90;;;;;;5033508;28;20199;-51
2023/07/21 07:14:30;;;;;;;7.53;5.97;;;18.50;99.90;;;;;;5033407;28;20217;-51
2023/07/21 07:16:57;;;;;;;6.57;6.07;;;18.60;99.90;;;;;;5033105;28;20678;-51
2023/07/21 07:19:24;;;;;;;7.43;6.03;;;18.30;99.90;;;;;;5052844;28;20657;-51
2023/07/21 07:21:51;;;;;;;6.60;6.03;;;18.20;99.90;;;;;;5052856;28;20766;-51
2023/07/21 07:24:19;;;;;;;7.37;6.67;;;18.00;99.90;;;;;;5052741;28;20201;-50
2023/07/21 07:26:46;;;;;;;7.20;6.50;;;18.10;99.90;;;;;;5033186;28;20202;-51
2023/07/21 07:29:15;;;;;;;7.13;6.43;;;18.20;99.90;;;;;;5033049;28;20622;-50
2023/07/21 07:31:43;;;;;;;4.57;3.67;;;18.00;99.90;;;;;;5033117;28;20203;-51
2023/07/21 07:34:10;;;;;;;4.73;4.33;;;18.00;99.90;;;;;;5050646;28;20217;-51
2023/07/21 07:36:36;;;;;;;6.27;5.70;;;18.00;99.90;;;;;;5052939;28;20255;-51
2023/07/21 07:39:03;;;;;;;6.47;5.60;;;18.00;99.90;;;;;;5052895;28;20209;-52
2023/07/21 07:41:31;;;;;;;5.90;5.50;;;18.00;99.90;;;;;;5051213;28;20244;-51
2023/07/21 07:43:57;;;;;;;5.37;4.87;;;18.10;99.90;;;;;;5037965;28;20228;-50
2023/07/21 07:46:26;;;;;;;6.47;5.90;;;18.00;99.90;;;;;;5052503;28;20252;-52
2023/07/21 07:48:53;;;;;;;6.13;5.73;;;18.10;99.90;;;;;;5052121;28;20660;-50
2023/07/21 07:51:20;;;;;;;6.17;5.73;;;18.20;99.90;;;;;;5049446;28;20227;-50
2023/07/21 07:53:47;;;;;;;4.97;4.60;;;18.30;99.90;;;;;;5047604;28;20210;-51
2023/07/21 07:56:16;;;;;;;5.17;4.87;;;18.30;99.90;;;;;;5048745;28;20220;-51
2023/07/21 07:58:43;;;;;;;5.17;4.87;;;18.30;99.90;;;;;;5052496;28;20396;-52
2023/07/21 08:01:12;;;;;;;7.83;6.03;;;18.40;99.90;;;;;;5051366;28;20213;-51
2023/07/21 08:03:43;;;;;;;8.87;6.70;;;18.50;99.90;;;;;;5051218;28;20763;-52
2023/07/21 08:06:10;;;;;;;8.17;7.37;;;18.50;99.90;;;;;;5049936;28;20206;-51
2023/07/21 08:08:37;;;;;;;7.20;5.97;;;18.60;99.90;;;;;;5050843;28;20218;-51
2023/07/21 08:11:04;;;;;;;8.57;6.93;;;18.70;99.90;;;;;;5051071;28;20255;-51
2023/07/21 08:13:31;;;;;;;6.57;6.07;;;18.80;99.90;;;;;;5050704;28;20606;-52
2023/07/21 08:15:58;;;;;;;7.90;6.73;;;18.80;99.90;;;;;;5047165;28;20288;-52
2023/07/21 08:18:25;;;;;;;7.00;6.50;;;19.00;99.90;;;;;;5051715;28;20214;-52
2023/07/21 08:20:53;;;;;;;8.60;6.83;;;19.30;99.90;;;;;;5051777;28;20243;-51
2023/07/21 08:23:20;;;;;;;9.53;6.23;;;19.50;99.90;;;;;;5049608;28;20723;-51
2023/07/21 08:25:47;;;;;;;7.77;6.23;;;19.70;99.90;;;;;;5050668;28;20198;-51
2023/07/21 08:28:14;;;;;;;7.17;6.57;;;19.80;99.90;;;;;;5048818;28;20210;-51
2023/07/21 08:30:41;;;;;;;5.90;5.53;;;19.80;99.90;;;;;;5051928;28;20194;-51
2023/07/21 08:33:08;;;;;;;5.90;5.30;;;19.90;99.90;;;;;;5050690;28;20575;-51
2023/07/21 08:35:35;;;;;;;5.43;4.37;;;19.90;99.90;;;;;;5050848;28;20193;-51
2023/07/21 08:38:04;;;;;;;5.83;5.33;;;19.90;99.90;;;;;;5049056;28;20604;-51
2023/07/21 08:40:32;;;;;;;6.50;5.10;;;20.00;99.90;;;;;;5051276;28;20197;-50
2023/07/21 08:43:02;;;;;;;4.77;4.37;;;20.00;99.90;;;;;;5050139;28;20276;-51
2023/07/21 08:45:31;;;;;;;5.20;4.90;;;20.00;99.90;;;;;;5051877;28;20244;-51
2023/07/21 08:48:00;;;;;;;5.60;5.20;;;19.90;99.90;;;;;;5051657;28;20228;-52
2023/07/21 08:50:28;;;;;;;4.80;4.47;;;19.80;99.90;;;;;;5051644;28;20718;-51
2023/07/21 08:52:55;;;;;;;4.30;4.10;;;19.80;99.90;;;;;;5051675;28;20645;-51
2023/07/21 08:55:25;;;;;;;6.70;4.17;;;19.80;99.90;;;;;;5051788;28;20201;-51
2023/07/21 08:57:58;;;;;;;4.90;4.57;;;19.80;99.90;;;;;;5066667;22;20300;-52
2023/07/21 09:00:26;;;;;;;3.80;3.60;;;19.80;99.90;;;;;;5031383;28;20580;-52
2023/07/21 09:02:59;;;;;;;4.30;3.87;;;19.80;99.90;;;;;;5029907;28;20584;-52
2023/07/21 09:05:26;;;;;;;5.53;5.13;;;19.90;99.90;;;;;;5031265;28;20205;-51
2023/07/21 09:07:53;;;;;;;5.07;4.67;;;20.10;99.90;;;;;;5031112;28;20222;-52
2023/07/21 09:10:30;;;;;;;4.73;4.43;;;20.30;99.90;;;;;;5031155;28;20758;-52
2023/07/21 09:12:57;;;;;;;5.23;4.77;;;20.50;99.90;;;;;;5030938;28;20205;-52
2023/07/21 09:15:24;;;;;;;5.30;4.90;;;20.70;99.90;;;;;;5030344;28;20194;-52
2023/07/21 09:17:51;;;;;;;5.60;5.20;;;20.70;99.90;;;;;;5022706;28;20276;-52
2023/07/21 09:20:19;;;;;;;6.27;5.70;;;21.10;99.90;;;;;;5030932;28;20677;-52
2023/07/21 09:22:48;;;;;;;5.87;5.50;;;21.80;99.90;;;;;;5034356;28;20218;-52
2023/07/21 09:25:20;;;;;;;6.40;6.00;;;22.60;99.90;;;;;;5035587;28;20206;-52
2023/07/21 09:27:54;;;;;;;5.50;5.10;;;22.90;99.90;;;;;;5034789;28;20226;-52
2023/07/21 09:30:22;;;;;;;5.27;4.87;;;23.40;99.90;;;;;;5031873;28;20198;-52
2023/07/21 09:32:54;;;;;;;5.40;5.10;;;23.70;99.90;;;;;;5034492;28;20691;-52
2023/07/21 09:35:22;;;;;;;4.70;4.50;;;23.70;99.90;;;;;;5034549;28;20290;-52
2023/07/21 09:37:51;;;;;;;5.93;5.33;;;23.70;99.90;;;;;;5032686;28;20847;-52
2023/07/21 09:40:18;;;;;;;6.40;5.90;;;23.60;99.90;;;;;;5027562;28;20665;-52
2023/07/21 09:42:45;;;;;;;6.37;5.97;;;22.90;99.90;;;;;;5032781;28;20608;-52
2023/07/21 09:45:14;;;;;;;6.13;5.53;;;22.40;99.90;;;;;;5027035;28;20692;-52
2023/07/21 09:47:47;;;;;;;6.27;5.73;;;22.30;99.90;;;;;;5034312;28;20234;-52
2023/07/21 09:50:14;;;;;;;6.33;5.73;;;22.20;99.90;;;;;;5034582;28;20190;-52
2023/07/21 09:52:46;;;;;;;6.50;5.10;;;22.20;99.90;;;;;;5032766;28;20233;-52
2023/07/21 09:55:13;;;;;;;5.50;5.10;;;22.10;99.90;;;;;;5034354;28;20191;-52
2023/07/21 09:57:46;;;;;;;6.60;6.20;;;22.00;99.90;;;;;;5034301;28;20265;-52
2023/07/21 10:00:17;;;;;;;7.20;6.60;;;22.00;99.90;;;;;;5026114;28;20206;-52
2023/07/21 10:02:46;;;;;;;6.43;5.97;;;22.40;99.90;;;;;;5031201;28;20221;-51
2023/07/21 10:05:14;;;;;;;5.93;5.57;;;22.70;99.90;;;;;;5024691;28;20202;-52
2023/07/21 10:07:48;;;;;;;4.97;4.67;;;22.80;99.90;;;;;;5026372;28;20663;-52
2023/07/21 10:10:16;;;;;;;5.40;5.07;;;23.00;99.90;;;;;;5024807;28;20285;-51
2023/07/21 10:12:49;;;;;;;4.73;4.43;;;23.00;99.90;;;;;;5031405;28;20190;-52
2023/07/21 10:15:20;;;;;;;4.10;3.70;;;23.10;99.90;;;;;;5030961;28;20672;-52
2023/07/21 10:17:57;;;;;;;4.27;3.97;;;23.00;99.90;;;;;;5032495;28;20230;-52
2023/07/21 10:20:42;;;;;;;3.60;3.30;;;23.10;99.90;;;;;;5030548;28;20199;-52
2023/07/21 10:23:10;;;;;;;2.83;2.73;;;23.20;99.90;;;;;;5023810;28;20750;-51
2023/07/21 10:26:01;;;;;;;6.37;3.70;;;23.20;99.90;;;;;;5031733;28;20265;-52
2023/07/21 10:28:37;;;;;;;5.33;3.73;;;23.40;99.90;;;;;;5027146;28;20285;-52
2023/07/21 10:31:38;;;;;;;3.20;3.00;;;23.40;99.90;;;;;;5032553;28;20252;-52
2023/07/21 10:34:09;;;;;;;3.83;3.07;;;23.30;99.90;;;;;;5020802;28;20306;-52
2023/07/21 10:36:44;;;;;;;3.70;3.10;;;23.30;99.90;;;;;;5029792;28;20206;-52
2023/07/21 10:39:12;;;;;;;4.00;3.77;;;23.10;99.90;;;;;;5025178;28;20269;-52
2023/07/21 10:41:39;;;;;;;3.37;3.27;;;22.90;99.90;;;;;;5033091;28;20202;-52
2023/07/21 10:44:07;;;;;;;3.17;2.97;;;22.60;99.90;;;;;;5032502;28;20218;-52
2023/07/21 10:46:39;;;;;;;3.30;3.10;;;22.30;99.90;;;;;;5031073;28;20210;-52
2023/07/21 10:49:06;;;;;;;2.87;2.77;;;22.10;99.90;;;;;;5031636;28;20214;-52
2023/07/21 10:51:33;;;;;;;3.03;2.93;;;21.80;99.90;;;;;;5033149;28;20264;-52
2023/07/21 10:54:00;;;;;;;3.47;3.17;;;21.60;99.90;;;;;;5032541;28;20248;-55
2023/07/21 10:56:27;;;;;;;2.90;2.73;;;21.50;99.90;;;;;;5032769;28;20206;-54
2023/07/21 10:58:54;;;;;;;2.97;2.87;;;21.40;99.90;;;;;;5030211;28;20222;-52
2023/07/21 11:01:21;;;;;;;2.20;2.10;;;21.30;99.90;;;;;;5032534;28;20245;-53
2023/07/21 11:03:49;;;;;;;4.10;3.70;;;21.20;99.90;;;;;;5024168;28;20219;-55
2023/07/21 11:06:17;;;;;;;2.87;2.53;;;21.10;99.90;;;;;;5032469;28;20245;-52
2023/07/21 11:08:44;;;;;;;2.80;2.70;;;21.10;99.90;;;;;;5030124;28;20352;-51
2023/07/21 11:11:12;;;;;;;3.67;3.30;;;21.20;99.90;;;;;;5032005;28;20203;-52
2023/07/21 11:13:39;;;;;;;3.30;3.10;;;21.20;99.90;;;;;;5032000;28;20646;-52
2023/07/21 11:16:06;;;;;;;3.20;3.00;;;21.20;99.90;;;;;;5027665;28;20199;-52
2023/07/21 11:18:33;;;;;;;4.57;4.17;;;21.40;99.90;;;;;;5027608;28;20639;-52
2023/07/21 11:21:02;;;;;;;4.13;3.83;;;21.50;99.90;;;;;;5030042;28;20207;-52
2023/07/21 11:23:31;;;;;;;3.77;3.57;;;21.60;99.90;;;;;;5031584;28;20257;-52
2023/07/21 11:26:04;;;;;;;3.90;3.70;;;21.50;99.90;;;;;;5031658;28;20234;-52
2023/07/21 11:28:31;;;;;;;3.90;3.70;;;21.50;99.90;;;;;;5031970;28;20357;-52
2023/07/21 11:31:00;;;;;;;6.10;4.53;;;21.50;99.90;;;;;;5028594;28;20613;-52
2023/07/21 11:33:40;;;;;;;6.03;5.53;;;21.50;99.90;;;;;;5022509;28;20198;-51
2023/07/21 11:36:19;;;;;;;6.27;5.87;;;21.50;99.90;;;;;;5031792;28;20214;-52
2023/07/21 11:39:00;;;;;;;6.67;6.17;;;21.40;99.90;;;;;;5031265;28;20222;-52
2023/07/21 11:41:48;;;;;;;6.00;5.70;;;21.40;99.90;;;;;;5031920;28;20692;-52
2023/07/21 11:44:23;;;;;;;7.07;6.67;;;21.30;99.90;;;;;;5030631;28;20276;-52
2023/07/21 11:46:59;;;;;;;7.07;6.67;;;21.10;99.90;;;;;;5029673;28;20256;-52
2023/07/21 11:49:28;;;;;;;6.30;5.90;;;21.10;99.90;;;;;;5025398;28;20715;-51
2023/07/21 11:52:00;;;;;;;7.73;7.00;;;21.10;99.90;;;;;;5031385;28;20278;-51
2023/07/21 11:54:28;;;;;;;8.17;7.63;;;21.10;99.90;;;;;;5030457;28;20194;-52
2023/07/21 11:56:56;;;;;;;7.57;7.07;;;21.30;99.90;;;;;;5030813;28;20200;-51
2023/07/21 11:59:24;;;;;;;6.90;6.30;;;21.60;99.90;;;;;;5030893;28;20226;-51
2023/07/21 12:01:52;;;;;;;6.37;6.00;;;21.90;99.90;;;;;;5028434;28;20207;-52
2023/07/21 12:04:21;;;;;;;6.67;6.27;;;22.20;99.90;;;;;;5021357;28;20223;-51
2023/07/21 12:06:48;;;;;;;6.37;5.73;;;22.40;99.90;;;;;;5031074;28;20238;-52
2023/07/21 12:09:17;;;;;;;8.57;4.67;;;22.70;99.90;;;;;;5031269;28;20715;-51
2023/07/21 12:11:44;;;;;;;6.13;5.63;;;22.70;99.90;;;;;;5031483;28;20520;-52
2023/07/21 12:14:11;;;;;;;5.80;5.30;;;22.60;99.90;;;;;;5031011;28;20736;-51
2023/07/21 12:16:39;;;;;;;7.50;4.17;;;22.50;99.90;;;;;;5031057;28;20195;-52
2023/07/21 12:19:07;;;;;;;5.53;5.20;;;22.50;99.90;;;;;;5031114;28;20227;-52
2023/07/21 12:21:35;;;;;;;8.73;5.93;;;22.50;99.90;;;;;;5029986;28;20620;-52
2023/07/21 12:24:02;;;;;;;6.33;5.27;;;22.50;99.90;;;;;;5039865;28;20235;-52
2023/07/21 12:26:30;;;;;;;5.33;5.03;;;22.60;99.90;;;;;;5050941;28;20212;-51
2023/07/21 12:28:57;;;;;;;4.37;4.17;;;22.50;99.90;;;;;;5046365;28;20217;-51
2023/07/21 12:31:25;;;;;;;4.00;3.70;;;22.60;99.90;;;;;;5030846;28;20252;-52
2023/07/21 12:33:55;;;;;;;4.53;4.30;;;22.80;99.90;;;;;;5030411;28;20539;-52
2023/07/21 12:36:22;;;;;;;4.30;4.10;;;23.10;99.90;;;;;;5034503;28;20204;-52
2023/07/21 12:38:49;;;;;;;3.63;3.43;;;23.00;99.90;;;;;;5036152;28;20252;-51
2023/07/21 12:41:16;;;;;;;3.93;3.73;;;23.20;99.90;;;;;;5034155;28;20208;-51
2023/07/21 12:43:44;;;;;;;2.63;2.53;;;23.60;99.90;;;;;;5034207;28;20309;-52
2023/07/21 12:46:14;;;;;;;3.13;2.97;;;23.80;99.90;;;;;;5030574;28;20232;-51
2023/07/21 12:48:42;;;;;;;3.07;2.73;;;23.80;99.90;;;;;;5034277;28;20213;-51
2023/07/21 12:51:10;;;;;;;2.50;2.30;;;23.80;99.90;;;;;;5050358;28;20256;-51
2023/07/21 12:53:37;;;;;;;2.60;2.43;;;23.80;99.90;;;;;;5050685;28;20568;-51